Time;durP1;ratioP1;P1;durP2;ratioP2;P2;SDS_P1;SDS_P2;PMS_P1;PMS_P2;Temp;Humidity;BMP_temperature;BMP_pressure;BME280_temperature;BME280_humidity;BME280_pressure;Samples;Min_cycle;Max_cycle;Signal;HPM_P1;HPM_P2
2022/09/12 00:00:25;;;;;;;26.33;21.97;;;;;;;12.60;100.00;101608.69;4998087;28;20520;-83
2022/09/12 00:02:52;;;;;;;24.97;21.73;;;;;;;12.63;100.00;101610.97;4999215;28;20045;-84
2022/09/12 00:05:18;;;;;;;28.37;25.13;;;;;;;12.71;100.00;101609.94;4997923;28;20030;-82
2022/09/12 00:07:43;;;;;;;32.77;28.13;;;;;;;12.71;100.00;101599.06;4998395;28;20713;-82
2022/09/12 00:10:08;;;;;;;27.93;23.90;;;;;;;12.71;100.00;101601.78;4997413;28;20769;-82
2022/09/12 00:12:34;;;;;;;25.60;22.00;;;;;;;12.72;100.00;101595.31;4998693;28;21370;-83
2022/09/12 00:14:59;;;;;;;25.73;22.67;;;;;;;12.61;100.00;101589.44;4998552;28;20726;-82
2022/09/12 00:17:24;;;;;;;27.13;22.93;;;;;;;12.75;100.00;101594.91;4980299;28;20220;-83
2022/09/12 00:19:50;;;;;;;26.40;22.80;;;;;;;12.64;100.00;101586.28;4997884;28;20176;-82
2022/09/12 00:22:15;;;;;;;27.87;23.73;;;;;;;12.68;100.00;101592.16;4980692;28;20041;-84
2022/09/12 00:24:40;;;;;;;23.60;21.03;;;;;;;12.58;100.00;101584.44;4984755;28;20065;-84
2022/09/12 00:27:06;;;;;;;26.43;22.80;;;;;;;12.63;100.00;101581.06;4998368;28;20156;-83
2022/09/12 00:29:31;;;;;;;31.73;26.83;;;;;;;12.70;100.00;101575.63;4997593;28;20037;-84
2022/09/12 00:31:57;;;;;;;33.60;29.83;;;;;;;12.71;100.00;101582.75;4998024;28;20034;-83
2022/09/12 00:34:22;;;;;;;34.00;30.30;;;;;;;12.65;100.00;101577.09;4976076;28;20263;-84
2022/09/12 00:36:47;;;;;;;30.33;27.03;;;;;;;12.63;100.00;101578.34;4996998;28;20061;-83
2022/09/12 00:39:16;;;;;;;31.50;28.10;;;;;;;12.58;100.00;101567.25;4980853;28;20044;-85
2022/09/12 00:41:42;;;;;;;26.73;23.87;;;;;;;12.54;100.00;101566.00;4997389;28;20068;-82
2022/09/12 00:44:19;;;;;;;27.27;24.07;;;;;;;12.52;100.00;101571.66;4997413;28;20038;-82
2022/09/12 00:46:56;;;;;;;26.10;23.00;;;;;;;12.47;100.00;101561.41;4997662;28;20060;-83
2022/09/12 00:49:41;;;;;;;26.70;22.63;;;;;;;12.49;100.00;101575.63;4998100;28;20034;-84
2022/09/12 00:52:13;;;;;;;30.33;25.67;;;;;;;12.45;100.00;101568.09;4997143;28;20044;-83
2022/09/12 00:54:46;;;;;;;29.50;25.60;;;;;;;12.52;100.00;101563.50;4997763;28;20053;-83
2022/09/12 00:57:14;;;;;;;28.40;23.27;;;;;;;12.43;100.00;101565.59;4995828;28;20026;-84
2022/09/12 01:00:03;;;;;;;27.87;24.17;;;;;;;12.44;100.00;101552.81;4997503;28;20104;-83
2022/09/12 01:02:28;;;;;;;30.60;27.17;;;;;;;12.37;100.00;101551.97;4997099;28;20084;-83
2022/09/12 01:04:54;;;;;;;29.70;24.73;;;;;;;12.36;100.00;101542.97;4997356;28;20049;-83
2022/09/12 01:07:20;;;;;;;29.20;25.03;;;;;;;12.31;100.00;101557.19;4997309;28;20048;-83
2022/09/12 01:09:46;;;;;;;30.20;26.80;;;;;;;12.39;100.00;101541.72;4997804;28;20113;-84
2022/09/12 01:12:14;;;;;;;30.70;26.87;;;;;;;12.30;100.00;101550.06;4996672;28;20387;-83
2022/09/12 01:14:39;;;;;;;31.60;27.83;;;;;;;12.34;100.00;101547.78;4996030;28;20072;-85
2022/09/12 01:17:04;;;;;;;32.23;28.17;;;;;;;12.30;100.00;101551.97;4997555;28;20406;-83
2022/09/12 01:20:11;;;;;;;30.57;26.97;;;;;;;12.30;100.00;101550.06;4996848;28;20041;-86
2022/09/12 01:22:55;;;;;;;29.20;26.10;;;;;;;12.24;100.00;101553.63;4997182;28;20033;-83
2022/09/12 01:25:28;;;;;;;26.17;23.03;;;;;;;12.19;100.00;101542.53;4995996;28;21982;-84
2022/09/12 01:28:17;;;;;;;28.37;23.00;;;;;;;12.15;100.00;101549.44;4996948;28;20895;-83
2022/09/12 01:30:53;;;;;;;28.17;25.17;;;;;;;12.10;100.00;101531.03;4996774;28;20037;-83
2022/09/12 01:33:33;;;;;;;27.90;24.90;;;;;;;12.17;100.00;101541.88;4996805;28;20134;-84
2022/09/12 01:36:18;;;;;;;26.77;23.87;;;;;;;12.19;100.00;101539.81;4997579;28;20100;-83
2022/09/12 01:39:00;;;;;;;23.67;21.10;;;;;;;12.12;100.00;101536.25;4975142;28;20034;-83
2022/09/12 01:41:43;;;;;;;32.73;29.00;;;;;;;12.18;100.00;101538.13;4978351;28;20037;-85
2022/09/12 01:44:36;;;;;;;33.30;29.53;;;;;;;12.21;100.00;101531.47;4996883;28;20406;-85
2022/09/12 01:47:09;;;;;;;30.57;27.27;;;;;;;12.16;100.00;101522.06;4996127;28;20489;-84
2022/09/12 01:49:51;;;;;;;28.43;24.07;;;;;;;12.04;100.00;101525.59;4996579;28;20386;-84
2022/09/12 01:52:24;;;;;;;29.30;26.13;;;;;;;12.11;100.00;101523.72;4996127;28;20025;-85
2022/09/12 01:54:59;;;;;;;24.57;21.60;;;;;;;11.92;100.00;101515.25;4996890;28;20308;-84
2022/09/12 01:57:31;;;;;;;26.30;21.37;;;;;;;12.00;100.00;101517.00;4995654;28;20477;-85
2022/09/12 02:00:02;;;;;;;30.80;26.53;;;;;;;12.07;100.00;101517.03;4996612;28;20034;-85
2022/09/12 02:02:51;;;;;;;37.90;33.43;;;;;;;12.12;100.00;101506.38;4996493;28;20321;-84
2022/09/12 02:05:33;;;;;;;26.70;23.83;;;;;;;11.98;100.00;101506.34;4996902;28;20211;-85
2022/09/12 02:08:46;;;;;;;29.17;25.03;;;;;;;11.98;100.00;101509.06;4996336;28;20065;-85
2022/09/12 02:11:12;;;;;;;31.00;27.57;;;;;;;11.97;100.00;101501.94;4994480;28;20034;-86
2022/09/12 02:13:50;;;;;;;32.20;28.73;;;;;;;11.93;100.00;101500.66;4996239;28;20109;-84
2022/09/12 02:16:24;;;;;;;36.90;31.23;;;;;;;11.97;100.00;101496.50;4996118;28;20120;-84
2022/09/12 02:18:54;;;;;;;30.65;27.35;;;;;;;11.89;100.00;101502.09;4995120;28;20034;-85
2022/09/12 02:21:22;;;;;;;31.73;28.10;;;;;;;11.95;100.00;101495.91;4995859;28;20061;-85
2022/09/12 02:23:56;;;;;;;31.97;28.20;;;;;;;12.01;100.00;101488.81;4977963;28;20041;-85
2022/09/12 02:26:32;;;;;;;33.40;29.88;;;;;;;11.95;100.00;101497.75;4995297;28;20048;-87
2022/09/12 02:28:58;;;;;;;32.30;28.63;;;;;;;11.98;100.00;101491.91;4996438;28;20045;-85
2022/09/12 02:32:03;;;;;;;30.73;27.43;;;;;;;11.94;100.00;101491.50;4961911;28;20034;-85
2022/09/12 02:34:38;;;;;;;33.42;29.65;;;;;;;11.90;100.00;101490.22;4994779;28;20033;-86
2022/09/12 02:37:26;;;;;;;31.43;28.03;;;;;;;11.94;100.00;101496.03;4995990;28;20034;-85
2022/09/12 02:39:54;;;;;;;31.50;28.07;;;;;;;11.85;100.00;101500.84;4995760;28;20033;-86
2022/09/12 02:42:21;;;;;;;34.20;29.77;;;;;;;11.82;100.00;101495.81;4995560;28;20152;-85
2022/09/12 02:44:47;;;;;;;30.63;26.23;;;;;;;11.74;100.00;101496.84;4994916;28;20494;-87
2022/09/12 02:47:27;;;;;;;29.27;25.43;;;;;;;11.79;100.00;101498.94;4995418;28;20036;-85
2022/09/12 02:49:53;;;;;;;28.10;25.10;;;;;;;11.80;100.00;101498.75;4995938;28;20478;-86
2022/09/12 02:52:19;;;;;;;30.83;26.30;;;;;;;11.72;100.00;101487.22;4993073;28;20066;-85
2022/09/12 02:54:45;;;;;;;37.03;32.00;;;;;;;11.83;100.00;101498.34;4996366;28;20231;-86
2022/09/12 02:57:19;;;;;;;38.00;32.10;;;;;;;11.82;100.00;101488.50;4994906;28;20461;-86
2022/09/12 02:59:45;;;;;;;34.67;30.13;;;;;;;11.72;100.00;101489.94;4995279;28;20309;-85
2022/09/12 03:02:34;;;;;;;35.77;31.93;;;;;;;11.81;100.00;101489.53;4999105;28;20042;-86
2022/09/12 03:05:09;;;;;;;34.60;30.90;;;;;;;11.87;100.00;101487.06;5000024;28;20030;-85
2022/09/12 03:07:54;;;;;;;32.23;27.20;;;;;;;11.77;100.00;101482.03;4998493;28;20041;-86
2022/09/12 03:10:19;;;;;;;30.30;27.00;;;;;;;11.76;100.00;101475.75;4999468;28;20064;-86
2022/09/12 03:12:59;;;;;;;31.77;28.17;;;;;;;11.75;100.00;101475.94;4999346;28;20567;-86
2022/09/12 03:15:50;;;;;;;31.33;27.93;;;;;;;11.70;100.00;101473.84;4999559;28;20030;-86
2022/09/12 03:18:25;;;;;;;34.50;29.87;;;;;;;11.76;100.00;101469.47;4998657;28;20401;-88
2022/09/12 03:21:14;;;;;;;30.70;26.90;;;;;;;11.69;100.00;101465.91;4981872;28;20030;-86
2022/09/12 03:23:45;;;;;;;29.90;26.70;;;;;;;11.65;100.00;101463.63;4999396;28;20030;-86
2022/09/12 03:26:34;;;;;;;30.00;26.67;;;;;;;11.65;100.00;101471.75;4999360;28;20477;-86
2022/09/12 03:29:02;;;;;;;30.27;26.97;;;;;;;11.68;100.00;101464.25;4999375;28;20037;-86
2022/09/12 03:31:28;;;;;;;31.53;27.63;;;;;;;11.70;100.00;101460.28;4999402;28;20026;-88
2022/09/12 03:33:53;;;;;;;35.23;30.07;;;;;;;11.69;100.00;101460.50;4981889;28;20060;-86
2022/09/12 03:36:23;;;;;;;34.20;30.50;;;;;;;11.71;100.00;101463.81;4981263;28;20049;-87
2022/09/12 03:38:48;;;;;;;31.13;27.33;;;;;;;11.70;100.00;101460.28;4999410;28;20371;-86
2022/09/12 03:41:14;;;;;;;37.87;31.33;;;;;;;11.74;100.00;101460.72;4998665;28;20040;-86
2022/09/12 03:43:39;;;;;;;35.10;31.30;;;;;;;11.71;100.00;101450.25;4999342;28;20034;-86
2022/09/12 03:46:05;;;;;;;37.77;33.63;;;;;;;11.75;100.00;101449.66;4999427;28;20045;-86
2022/09/12 03:48:33;;;;;;;34.33;30.63;;;;;;;11.72;100.00;101468.22;4998710;28;20044;-85
2022/09/12 03:51:04;;;;;;;35.80;31.97;;;;;;;11.77;100.00;101458.41;4981900;28;20044;-87
2022/09/12 03:53:30;;;;;;;40.43;36.03;;;;;;;11.83;100.00;101462.19;4999114;28;20033;-86
2022/09/12 03:55:56;;;;;;;44.23;36.30;;;;;;;11.88;100.00;101464.31;4984034;28;20524;-86
2022/09/12 03:58:22;;;;;;;44.17;36.93;;;;;;;11.93;100.00;101457.19;4980905;28;20034;-85
2022/09/12 04:00:47;;;;;;;42.13;36.40;;;;;;;11.89;100.00;101450.50;4997497;28;20298;-86
2022/09/12 04:03:12;;;;;;;38.07;31.73;;;;;;;11.86;100.00;101448.22;4998820;28;20625;-86
2022/09/12 04:05:38;;;;;;;41.37;33.80;;;;;;;11.84;100.00;101444.84;4998909;28;20160;-86
2022/09/12 04:08:03;;;;;;;40.53;34.47;;;;;;;11.91;100.00;101453.88;4998115;28;20163;-86
2022/09/12 04:10:30;;;;;;;45.50;37.70;;;;;;;11.95;100.00;101446.16;4998662;28;20042;-88
2022/09/12 04:12:55;;;;;;;40.43;34.07;;;;;;;11.95;100.00;101444.31;4997309;28;20046;-86
2022/09/12 04:15:20;;;;;;;45.63;36.10;;;;;;;11.97;100.00;101444.09;4998357;28;20483;-89
2022/09/12 04:17:45;;;;;;;43.37;35.97;;;;;;;12.00;100.00;101438.25;4997891;28;20045;-85
2022/09/12 04:20:11;;;;;;;42.97;36.20;;;;;;;12.01;100.00;101444.50;4998368;28;20041;-88
2022/09/12 04:22:36;;;;;;;41.37;35.43;;;;;;;11.96;100.00;101434.25;4996744;28;20042;-85
2022/09/12 04:25:02;;;;;;;40.60;33.40;;;;;;;11.96;100.00;101443.25;4996694;28;20153;-87
2022/09/12 04:27:49;;;;;;;42.80;35.17;;;;;;;12.03;100.00;101439.72;4976105;28;20093;-85
2022/09/12 04:30:14;;;;;;;42.73;35.60;;;;;;;12.04;100.00;101436.78;4997513;28;20043;-86
2022/09/12 04:32:40;;;;;;;43.10;35.93;;;;;;;12.05;100.00;101432.16;4997190;28;20116;-90
2022/09/12 04:35:05;;;;;;;41.23;34.70;;;;;;;12.03;100.00;101442.44;4995018;28;21458;-86
2022/09/12 04:37:31;;;;;;;44.33;34.53;;;;;;;12.04;100.00;101431.34;4996299;28;20457;-86
2022/09/12 04:39:57;;;;;;;43.60;34.37;;;;;;;11.98;100.00;101421.31;4996206;28;20426;-86
2022/09/12 04:42:23;;;;;;;41.87;36.43;;;;;;;12.04;100.00;101430.53;4996674;28;20064;-86
2022/09/12 04:44:49;;;;;;;43.60;35.80;;;;;;;12.06;100.00;101428.41;4996074;28;20480;-86
2022/09/12 04:47:15;;;;;;;43.93;35.97;;;;;;;12.04;100.00;101423.19;4982392;28;20535;-86
2022/09/12 04:49:41;;;;;;;43.10;36.50;;;;;;;12.06;100.00;101428.41;4978131;28;20042;-86
2022/09/12 04:52:06;;;;;;;42.77;36.07;;;;;;;12.07;100.00;101425.50;4995460;28;20049;-85
2022/09/12 04:54:33;;;;;;;44.90;36.23;;;;;;;12.06;100.00;101426.56;4995574;28;20619;-86
2022/09/12 04:56:58;;;;;;;41.93;35.50;;;;;;;12.07;100.00;101425.50;4995516;28;20048;-89
2022/09/12 04:59:24;;;;;;;43.60;35.53;;;;;;;12.11;100.00;101428.63;4995209;28;20042;-86
2022/09/12 05:01:50;;;;;;;44.73;36.23;;;;;;;12.09;100.00;101422.56;4995469;28;20129;-86
2022/09/12 05:04:15;;;;;;;41.30;34.47;;;;;;;12.08;100.00;101415.47;4995237;28;20363;-86
2022/09/12 05:06:42;;;;;;;44.73;36.50;;;;;;;12.15;100.00;101429.91;4996427;28;20053;-88
2022/09/12 05:09:10;;;;;;;42.17;35.67;;;;;;;12.12;100.00;101417.56;4976975;28;20037;-86
2022/09/12 05:11:39;;;;;;;42.83;36.50;;;;;;;12.09;100.00;101423.41;4996828;28;20036;-86
2022/09/12 05:14:04;;;;;;;43.87;36.33;;;;;;;12.14;100.00;101423.63;4995411;28;20475;-85
2022/09/12 05:16:31;;;;;;;43.17;35.47;;;;;;;12.15;100.00;101430.72;4997642;28;20030;-86
2022/09/12 05:18:58;;;;;;;43.80;36.77;;;;;;;12.18;100.00;101434.91;4997322;28;20030;-86
2022/09/12 05:21:24;;;;;;;41.13;34.90;;;;;;;12.18;100.00;101437.63;4996906;28;20038;-85
2022/09/12 05:23:51;;;;;;;40.23;34.00;;;;;;;12.18;100.00;101439.50;4996400;28;21731;-85
2022/09/12 05:26:19;;;;;;;44.10;36.10;;;;;;;12.20;100.00;101432.84;4997195;28;20057;-85
2022/09/12 05:28:45;;;;;;;42.00;34.97;;;;;;;12.22;100.00;101428.00;4997605;28;20449;-85
2022/09/12 05:31:12;;;;;;;41.63;33.20;;;;;;;12.23;100.00;101426.97;4978397;28;20281;-87
2022/09/12 05:33:41;;;;;;;42.37;34.70;;;;;;;12.28;100.00;101426.34;4996434;28;20711;-86
2022/09/12 05:36:10;;;;;;;36.60;31.73;;;;;;;12.19;100.00;101430.31;4996981;28;20049;-85
2022/09/12 05:38:36;;;;;;;40.87;34.10;;;;;;;12.20;100.00;101424.69;4997195;28;20502;-85
2022/09/12 05:41:11;;;;;;;42.90;35.97;;;;;;;12.28;100.00;101427.19;4996559;28;20033;-88
2022/09/12 05:43:37;;;;;;;40.80;35.00;;;;;;;12.29;100.00;101426.16;4997073;28;20034;-86
2022/09/12 05:46:15;;;;;;;40.13;33.23;;;;;;;12.35;100.00;101429.06;4978818;28;20259;-85
2022/09/12 05:48:42;;;;;;;39.63;31.53;;;;;;;12.23;100.00;101434.31;4996845;28;20034;-85
2022/09/12 05:51:11;;;;;;;38.07;31.97;;;;;;;12.29;100.00;101439.75;4979077;28;20041;-86
2022/09/12 05:53:37;;;;;;;43.07;34.63;;;;;;;12.33;100.00;101430.13;4995036;28;20422;-86
2022/09/12 05:56:11;;;;;;;42.63;35.13;;;;;;;12.39;100.00;101427.59;4997255;28;20406;-85
2022/09/12 05:58:41;;;;;;;41.35;32.72;;;;;;;12.45;100.00;101434.91;4995153;28;20040;-85
2022/09/12 06:01:12;;;;;;;41.23;33.57;;;;;;;12.47;100.00;101436.38;4997102;28;20041;-85
2022/09/12 06:03:45;;;;;;;43.70;34.17;;;;;;;12.46;100.00;101436.59;4997110;28;20056;-86
2022/09/12 06:06:12;;;;;;;39.83;33.70;;;;;;;12.58;100.00;101453.09;4996381;28;20036;-85
2022/09/12 06:08:39;;;;;;;39.60;34.27;;;;;;;12.57;100.00;101452.25;4995622;28;20049;-87
2022/09/12 06:11:05;;;;;;;42.53;34.67;;;;;;;12.61;100.00;101450.78;4995215;28;20042;-85
2022/09/12 06:13:41;;;;;;;42.90;33.90;;;;;;;12.66;100.00;101456.44;4995600;28;20814;-85
2022/09/12 06:16:33;;;;;;;40.53;34.20;;;;;;;12.71;100.00;101450.34;4995870;28;20030;-85
2022/09/12 06:19:05;;;;;;;41.53;33.63;;;;;;;12.68;100.00;101444.53;4978000;28;20067;-85
2022/09/12 06:21:32;;;;;;;44.97;34.77;;;;;;;12.72;100.00;101448.50;4996173;28;20037;-86
2022/09/12 06:23:58;;;;;;;42.10;33.83;;;;;;;12.74;100.00;101449.97;4995286;28;20029;-85
2022/09/12 06:26:24;;;;;;;41.53;34.63;;;;;;;12.75;100.00;101448.06;4995130;28;20589;-86
2022/09/12 06:28:51;;;;;;;41.30;33.37;;;;;;;12.73;100.00;101448.28;4996139;28;20651;-85
2022/09/12 06:31:22;;;;;;;41.37;34.23;;;;;;;12.76;100.00;101447.03;4996156;28;20079;-85
2022/09/12 06:34:07;;;;;;;41.87;34.17;;;;;;;12.75;100.00;101438.00;4995290;28;20050;-85
2022/09/12 06:36:38;;;;;;;42.20;35.63;;;;;;;12.72;100.00;101434.91;4995191;28;20458;-85
2022/09/12 06:39:07;;;;;;;43.00;35.17;;;;;;;12.73;100.00;101439.25;4996013;28;20067;-85
2022/09/12 06:41:33;;;;;;;42.20;34.67;;;;;;;12.72;100.00;101430.28;4977781;28;20038;-86
2022/09/12 06:44:00;;;;;;;42.70;35.57;;;;;;;12.74;100.00;101441.81;4994273;28;20041;-85
2022/09/12 06:46:26;;;;;;;39.83;34.33;;;;;;;12.74;100.00;101444.53;4995031;28;20042;-85
2022/09/12 06:48:54;;;;;;;43.10;35.60;;;;;;;12.77;100.00;101437.78;4995888;28;20046;-84
2022/09/12 06:51:20;;;;;;;42.33;36.00;;;;;;;12.80;100.00;101440.13;4995614;28;20057;-85
2022/09/12 06:53:46;;;;;;;42.23;36.03;;;;;;;12.87;100.00;101443.66;4995752;28;20558;-84
2022/09/12 06:56:18;;;;;;;42.53;35.40;;;;;;;12.92;100.00;101441.13;4995914;28;20137;-84
2022/09/12 06:58:44;;;;;;;43.67;36.73;;;;;;;13.00;100.00;101440.91;4995844;28;20060;-84
2022/09/12 07:01:15;;;;;;;46.00;36.90;;;;;;;13.10;100.00;101436.91;4996120;28;20040;-84
2022/09/12 07:03:42;;;;;;;43.93;36.53;;;;;;;13.20;100.00;101437.25;4995330;28;20038;-84
2022/09/12 07:06:12;;;;;;;43.50;36.07;;;;;;;13.35;100.00;101442.44;4996160;28;20124;-83
2022/09/12 07:08:39;;;;;;;42.50;35.87;;;;;;;13.49;100.00;101437.81;4995838;28;20038;-84
2022/09/12 07:11:12;;;;;;;42.70;35.73;;;;;;;13.60;100.00;101433.56;4995867;28;20100;-84
2022/09/12 07:13:39;;;;;;;39.07;33.63;;;;;;;13.70;100.00;101439.38;4994696;28;20050;-84
2022/09/12 07:16:05;;;;;;;40.67;34.27;;;;;;;13.83;100.00;101427.56;4995465;28;20496;-83
2022/09/12 07:18:32;;;;;;;40.50;33.10;;;;;;;13.97;100.00;101434.59;4995135;28;20164;-84
2022/09/12 07:21:01;;;;;;;37.33;31.17;;;;;;;14.05;100.00;101429.94;4995678;28;20060;-86
2022/09/12 07:23:27;;;;;;;35.23;29.83;;;;;;;14.10;100.00;101422.78;4976138;28;20041;-85
2022/09/12 07:25:54;;;;;;;37.10;32.30;;;;;;;14.19;100.00;101417.88;4977777;28;20042;-85
2022/09/12 07:28:20;;;;;;;37.17;32.13;;;;;;;14.34;100.00;101415.66;4994914;28;20030;-85
2022/09/12 07:30:45;;;;;;;37.33;30.50;;;;;;;14.45;100.00;101413.25;4995452;28;20100;-85
2022/09/12 07:33:11;;;;;;;34.43;29.33;;;;;;;14.58;100.00;101415.88;4994658;28;20048;-86
2022/09/12 07:35:36;;;;;;;34.77;29.87;;;;;;;14.80;100.00;101423.66;4993496;28;20125;-86
2022/09/12 07:38:01;;;;;;;34.50;29.17;;;;;;;14.90;100.00;101418.50;4995367;28;20038;-87
2022/09/12 07:40:27;;;;;;;32.50;28.00;;;;;;;15.10;100.00;101433.81;4977318;28;20045;-86
2022/09/12 07:42:52;;;;;;;32.53;28.20;;;;;;;15.31;100.00;101432.50;4953559;28;20173;-85
2022/09/12 07:45:17;;;;;;;31.80;28.23;;;;;;;15.52;100.00;101433.94;4994821;28;20133;-85
2022/09/12 07:47:43;;;;;;;32.30;26.67;;;;;;;15.68;100.00;101444.22;4997873;28;20444;-85
2022/09/12 07:50:08;;;;;;;28.97;25.10;;;;;;;15.81;100.00;101431.47;4997071;28;20853;-85
2022/09/12 07:52:53;;;;;;;34.33;26.53;;;;;;;15.94;99.89;101423.06;4998871;28;20489;-85
2022/09/12 07:55:19;;;;;;;31.43;25.60;;;;;;;16.16;100.00;101433.47;4998716;28;20041;-85
2022/09/12 07:57:48;;;;;;;30.17;25.07;;;;;;;16.22;98.63;101439.88;4999166;28;20045;-87
2022/09/12 08:00:14;;;;;;;29.10;25.10;;;;;;;16.29;96.85;101438.72;4997409;28;20130;-85
2022/09/12 08:02:40;;;;;;;30.30;26.23;;;;;;;16.55;99.54;101442.06;4998757;28;20437;-85
2022/09/12 08:05:05;;;;;;;29.63;24.23;;;;;;;16.65;96.81;101442.28;4998127;28;20041;-84
2022/09/12 08:07:31;;;;;;;27.00;22.70;;;;;;;16.69;93.80;101427.06;4998850;28;20451;-89
2022/09/12 08:09:56;;;;;;;29.70;24.10;;;;;;;16.77;93.81;101441.44;4998717;28;20588;-85
2022/09/12 08:12:21;;;;;;;27.97;23.83;;;;;;;16.93;94.37;101442.66;4995298;28;20081;-84
2022/09/12 08:14:47;;;;;;;27.90;23.47;;;;;;;17.08;94.28;101440.28;4998242;28;20124;-85
2022/09/12 08:17:13;;;;;;;25.63;21.73;;;;;;;17.14;91.17;101442.03;4998268;28;20038;-85
2022/09/12 08:19:38;;;;;;;29.47;22.70;;;;;;;17.36;93.65;101436.72;4998599;28;20553;-85
2022/09/12 08:22:04;;;;;;;25.63;22.17;;;;;;;17.49;89.94;101437.56;4996881;28;20084;-86
2022/09/12 08:24:30;;;;;;;25.42;21.88;;;;;;;17.57;89.10;101439.91;4997628;28;20096;-84
2022/09/12 08:26:56;;;;;;;24.95;21.08;;;;;;;17.82;89.01;101444.19;4997134;28;20390;-84
2022/09/12 08:29:21;;;;;;;25.42;21.05;;;;;;;17.97;87.96;101443.69;4997588;28;20073;-84
2022/09/12 08:31:46;;;;;;;26.35;20.95;;;;;;;18.19;86.57;101436.38;4998055;28;20137;-86
2022/09/12 08:34:12;;;;;;;24.73;20.42;;;;;;;18.33;87.08;101441.53;4997573;28;20038;-84
2022/09/12 08:36:37;;;;;;;25.10;19.98;;;;;;;18.57;87.07;101450.41;4979582;28;20033;-84
2022/09/12 08:39:05;;;;;;;24.05;18.80;;;;;;;18.68;83.50;101445.91;4980291;28;20079;-85
2022/09/12 08:41:45;;;;;;;23.02;19.23;;;;;;;18.85;82.26;101452.22;4997707;28;20049;-85
2022/09/12 08:44:35;;;;;;;24.33;19.80;;;;;;;19.09;83.67;101451.19;4971400;28;20165;-83
2022/09/12 08:47:09;;;;;;;23.23;18.63;;;;;;;19.26;82.00;101454.72;4998259;28;20049;-83
2022/09/12 08:49:40;;;;;;;22.58;18.52;;;;;;;19.65;81.14;101440.88;4997137;28;20057;-83
2022/09/12 08:52:31;;;;;;;25.35;19.50;;;;;;;20.15;83.04;101455.41;4997471;28;20037;-83
2022/09/12 08:54:57;;;;;;;21.98;17.80;;;;;;;20.13;76.80;101448.53;4988195;28;20057;-84
2022/09/12 08:57:23;;;;;;;21.98;16.17;;;;;;;20.28;74.80;101447.78;4996724;28;20030;-83
2022/09/12 08:59:49;;;;;;;20.10;16.42;;;;;;;20.53;75.03;101458.19;4996643;28;20525;-83
2022/09/12 09:02:31;;;;;;;20.60;17.35;;;;;;;20.67;75.01;101451.16;4996212;28;20194;-83
2022/09/12 09:05:28;;;;;;;21.55;17.52;;;;;;;20.67;74.30;101448.38;4997965;28;20374;-83
2022/09/12 09:08:10;;;;;;;21.75;17.17;;;;;;;20.94;74.03;101449.41;4997638;28;20401;-83
2022/09/12 09:10:56;;;;;;;20.67;16.13;;;;;;;20.98;73.21;101456.84;4995918;28;20034;-84
2022/09/12 09:16:38;;;;;;;20.97;16.20;;;;;;;21.29;71.43;101445.16;4997590;28;20065;-84
2022/09/12 09:19:19;;;;;;;20.25;16.60;;;;;;;21.27;71.16;101437.16;4997261;28;20033;-84
2022/09/12 09:21:59;;;;;;;23.00;16.85;;;;;;;21.37;69.56;101439.13;4997634;28;20041;-83
2022/09/12 09:24:32;;;;;;;22.00;16.52;;;;;;;21.49;72.42;101425.13;4996156;28;20048;-83
2022/09/12 09:27:04;;;;;;;19.80;16.02;;;;;;;21.52;68.15;101427.31;4997138;28;20041;-85
2022/09/12 09:29:38;;;;;;;21.98;15.88;;;;;;;21.82;69.34;101426.56;4996368;28;20041;-84
2022/09/12 09:32:14;;;;;;;21.23;16.23;;;;;;;21.97;66.86;101425.75;4996827;28;20058;-86
2022/09/12 09:34:39;;;;;;;19.60;15.38;;;;;;;22.25;67.81;101421.63;4996682;28;20037;-83
2022/09/12 09:37:18;;;;;;;17.85;14.05;;;;;;;22.45;68.05;101425.50;4996399;28;20467;-85
2022/09/12 09:40:01;;;;;;;18.27;14.63;;;;;;;22.38;65.06;101433.25;4992499;28;20050;-83
2022/09/12 09:42:32;;;;;;;18.20;14.43;;;;;;;22.59;66.62;101428.53;4996588;28;20260;-83
2022/09/12 09:45:01;;;;;;;19.92;15.48;;;;;;;22.54;66.03;101423.84;4996763;28;20889;-81
2022/09/12 09:47:26;;;;;;;19.00;14.75;;;;;;;22.84;64.01;101424.88;4997240;28;20046;-85
2022/09/12 09:49:52;;;;;;;15.70;11.45;;;;;;;22.95;61.71;101408.28;4996801;28;20045;-84
2022/09/12 09:52:26;;;;;;;14.52;11.40;;;;;;;22.97;62.39;101409.66;4997071;28;20041;-84
2022/09/12 09:54:57;;;;;;;14.80;11.93;;;;;;;23.03;63.46;101410.44;4996387;28;20032;-84
2022/09/12 09:57:34;;;;;;;15.07;12.00;;;;;;;23.29;64.47;101405.66;4996772;28;20033;-84
2022/09/12 10:00:23;;;;;;;15.77;11.50;;;;;;;23.49;60.57;101401.16;4995757;28;20033;-85
2022/09/12 10:03:04;;;;;;;16.55;12.45;;;;;;;23.39;60.59;101391.78;4996937;28;20104;-89
2022/09/12 10:05:32;;;;;;;13.60;11.50;;;;;;;23.53;59.70;101391.16;4969661;28;20057;-83
2022/09/12 10:07:57;;;;;;;16.02;12.63;;;;;;;23.77;60.50;101389.31;4996944;28;20722;-87
2022/09/12 10:10:24;;;;;;;13.45;11.35;;;;;;;23.88;59.58;101386.47;4995846;28;20077;-84
2022/09/12 10:12:50;;;;;;;13.80;11.35;;;;;;;23.94;58.93;101379.81;4995061;28;20065;-83
2022/09/12 10:15:19;;;;;;;16.15;10.10;;;;;;;23.87;57.67;101382.06;4995574;28;20061;-84
2022/09/12 10:17:48;;;;;;;14.00;11.45;;;;;;;23.77;58.52;101378.25;4978067;28;20473;-87
2022/09/12 10:20:34;;;;;;;14.63;11.38;;;;;;;24.10;58.33;101386.88;4995394;28;20469;-85
2022/09/12 10:23:23;;;;;;;12.55;10.50;;;;;;;24.16;58.47;101384.06;4976593;28;20461;-84
2022/09/12 10:25:55;;;;;;;11.25;10.02;;;;;;;24.05;55.95;101375.03;4984605;28;20522;-87
2022/09/12 10:28:36;;;;;;;13.25;10.48;;;;;;;24.29;58.04;101369.53;4994420;28;20027;-86
2022/09/12 10:31:02;;;;;;;12.15;10.05;;;;;;;24.08;55.99;101366.97;4995345;28;20030;-85
2022/09/12 10:33:28;;;;;;;11.57;8.55;;;;;;;24.23;55.59;101373.47;4994081;28;20643;-84
2022/09/12 10:35:54;;;;;;;11.18;8.60;;;;;;;24.16;54.71;101364.69;4977793;28;20042;-84
2022/09/12 10:38:26;;;;;;;12.18;9.20;;;;;;;24.01;56.97;101360.94;4995529;28;20041;-83
2022/09/12 10:41:04;;;;;;;9.90;7.07;;;;;;;24.22;56.07;101355.19;4995131;28;20033;-84
2022/09/12 10:43:32;;;;;;;9.77;7.00;;;;;;;24.30;54.72;101351.78;4995855;28;20030;-86
2022/09/12 10:46:18;;;;;;;10.43;7.90;;;;;;;24.24;54.81;101350.22;4995859;28;20052;-87
2022/09/12 10:48:48;;;;;;;11.30;8.13;;;;;;;24.21;53.91;101342.50;4994967;28;20391;-85
2022/09/12 10:51:23;;;;;;;10.57;8.93;;;;;;;24.37;54.74;101338.44;4995898;28;21490;-84
2022/09/12 10:53:50;;;;;;;12.65;9.23;;;;;;;24.60;54.31;101335.97;4994095;28;20132;-84
2022/09/12 10:56:38;;;;;;;10.10;7.70;;;;;;;24.73;53.34;101331.69;4995692;28;20069;-86
2022/09/12 10:59:23;;;;;;;8.25;6.05;;;;;;;24.63;51.60;101327.09;4986969;28;20077;-85
2022/09/12 11:02:00;;;;;;;6.55;4.95;;;;;;;24.49;51.84;101338.00;4995911;28;20237;-89
2022/09/12 11:04:30;;;;;;;8.15;5.93;;;;;;;24.28;52.02;101334.66;4995120;28;20034;-86
2022/09/12 11:07:40;;;;;;;9.65;7.07;;;;;;;24.15;51.86;101318.72;4995651;28;20026;-84
2022/09/12 11:10:16;;;;;;;8.07;5.75;;;;;;;24.46;55.11;101321.19;4994841;28;20030;-84
2022/09/12 11:12:57;;;;;;;9.48;5.60;;;;;;;24.24;52.05;101320.56;4977372;28;20423;-85
2022/09/12 11:15:34;;;;;;;8.57;6.30;;;;;;;24.31;52.65;101309.16;4994767;28;20045;-85
2022/09/12 11:18:10;;;;;;;5.35;4.60;;;;;;;24.41;53.12;101314.59;4995171;28;20100;-85
2022/09/12 11:21:04;;;;;;;6.85;5.00;;;;;;;24.39;51.30;101304.91;4994886;28;20037;-88
2022/09/12 11:23:45;;;;;;;5.03;4.50;;;;;;;24.44;51.63;101302.91;4999257;28;20046;-83
2022/09/12 11:26:39;;;;;;;7.00;4.65;;;;;;;24.38;52.05;101304.06;4998764;28;20037;-85